Piona logo

Wyniki

Bieg Czuwajczyka
I

Dystans:1,918 km
Data:2015-03-29 (niedziela)
Godzina:12:00
Miejscowość:Przemyśl
Lokalizacja:Stadion KS Czuwaj - Zobacz trasę
Adres:ul. 22 stycznia 6
Współrzędne GPS:49.7883, 22.7730 - Sprawdż na Google Maps
Wpisowe:brak
Liczba uczestników:35
Status:Zawody zakończone

OpenNumerKrajImięNazwiskoPłećR. ur.KMKategoria# KatMiejscowośćRezultat
[hh:mm:ss]
Tempo
[min/km]
1P368POLPolandEryk DUDEK M19991M16-171Przemysl 00:07:3503:57
2P347POLPolandJustynaSTRZELECK19981K16-171Przemyśl00:07:3503:57
3P373POLPolandWojciechMUSZAKM19932M20-291Przemyśl00:07:4904:05
4P379POLPolandMarcinSZEJDEWIKM19883M20-292Przemysl00:07:5204:06
5P182POLPolandGrzegorzOLKOM19814M30-391Przemyśl00:08:0604:13
6???-Kacper Kamiński1*00:08:4504:34
7P369POLPolandBartek MIELNICZEK M19995M16-172Przemyśl 00:08:5004:36
8P365POLPolandAnnaMISZCZYSZYN- JÓZWA K19932K20-291Radymno00:08:5504:39
9P349POLPolandTomaszSZYMAŃSKIM19816M30-392Przemyśl00:09:1104:47
10P360POLPolandRobertBALM19767M30-393Przemyśl00:09:2804:56
11P367POLPolandPawełHIRSZBERGM19918M20-293Przemyśl00:09:3204:58
12P355POLPolandPiotrCUPAKM19779M30-394Przemyśl00:09:4205:03
13???-Przemek Giemzo2*00:09:5805:12
14???-Marcin Kaczor3*00:09:5905:12
15P371POLPolandLechKACZORM198310M30-395Przemyśl-Zasanie00:10:0205:14
16???-Dominik Braja4*00:10:0205:14
17P346POLPolandGrzegorzWALATEKM198211M30-396Przemyśl00:10:0405:15
18???-Kamil Siekaniec5*00:10:0705:16
19P356POLPolandWojciechWALATEKM198112M30-397Przemyśl00:10:1705:22
20P344POLPolandPrzemysławMAKOWIECKIM197713M30-398Przemyśl00:10:1905:23
21P370POLPolandKrzysztofCZOPIKM199114M20-294Przemyśl00:10:2205:24
22P345POLPolandBartoszDOŁHUNM198415M30-399Przemyśl00:10:2905:28
23P380POLPolandPiotrZAPIORM196216M50-591przemyśl00:10:3105:29
24P351POLPolandArkadiuszŁUSZCZKIM198017M30-3910Przemyśl00:11:0305:46
25P354POLPolandJagodaPIĄTKOWSKAK19973K18-191Przemyśl00:11:0605:47
26P363POLPolandBartłomiejSOBÓLM198418M30-3911Przemyśl00:11:1205:50
27P353POLPolandWiolkaPIĄTKOWSKAK19804K30-391Przemyśl00:11:1805:53
28P362POLPolandArletaWARDĘGA K19845K30-392Przemyśl 00:11:4306:07
29P364POLPolandMaciekBARANM198419M30-3912Przemyśl00:11:4406:07
30P348POLPolandAdamGŁOGOWSKIM197920M30-3913Przemyśl00:11:4706:09
31P358POLPolandRyszardŚWIĘCICKIM200921M6-71Przemyśl00:12:1006:21
32P374POLPolandTomaszSCHABOWSKIM197022M40-491Przemyśl00:12:2206:27
33P350POLPolandTomaszEKIERTM197723M30-3914Przemyśl00:12:2606:29
34P343POLPolandJacekMISZCZYSZYNM198524M30-3915Przemyśl00:12:3006:31
35P342POLPolandRadekMAKOWIECKIM198525M30-3916Przemyśl00:12:3006:31

Jeśli widzisz błąd w wynikach prosimy o kontakt.

© 2014 Piona
Przemyśl Jarosławska Grupa Biegowa SOKÓŁ
Piona ikona